sensor_id;sensor_type;location;lat;lon;timestamp;P1;durP1;ratioP1;P2;durP2;ratioP2
78368;SDS011;71113;43.092;-89.268;2024-02-15T00:02:03;73.53;;;23.05;;
78368;SDS011;71113;43.092;-89.268;2024-02-15T00:04:29;71.35;;;23.55;;
78368;SDS011;71113;43.092;-89.268;2024-02-15T00:06:57;69.13;;;22.40;;
78368;SDS011;71113;43.092;-89.268;2024-02-15T00:09:22;70.88;;;23.05;;
78368;SDS011;71113;43.092;-89.268;2024-02-15T00:11:48;68.80;;;22.92;;
78368;SDS011;71113;43.092;-89.268;2024-02-15T00:14:14;70.18;;;23.00;;
78368;SDS011;71113;43.092;-89.268;2024-02-15T00:16:40;66.57;;;21.48;;
78368;SDS011;71113;43.092;-89.268;2024-02-15T00:19:06;61.28;;;20.15;;
78368;SDS011;71113;43.092;-89.268;2024-02-15T00:21:32;51.55;;;17.88;;
78368;SDS011;71113;43.092;-89.268;2024-02-15T00:23:58;53.97;;;17.42;;
78368;SDS011;71113;43.092;-89.268;2024-02-15T00:26:25;47.10;;;16.30;;
78368;SDS011;71113;43.092;-89.268;2024-02-15T00:28:51;45.75;;;15.35;;
78368;SDS011;71113;43.092;-89.268;2024-02-15T00:31:17;45.58;;;16.95;;
78368;SDS011;71113;43.092;-89.268;2024-02-15T00:33:43;43.17;;;13.90;;
78368;SDS011;71113;43.092;-89.268;2024-02-15T00:36:10;41.65;;;14.50;;
78368;SDS011;71113;43.092;-89.268;2024-02-15T00:38:36;43.35;;;13.93;;
78368;SDS011;71113;43.092;-89.268;2024-02-15T00:41:02;41.65;;;13.55;;
78368;SDS011;71113;43.092;-89.268;2024-02-15T00:43:28;43.25;;;14.35;;
78368;SDS011;71113;43.092;-89.268;2024-02-15T00:45:54;39.55;;;13.95;;
78368;SDS011;71113;43.092;-89.268;2024-02-15T00:48:20;40.67;;;13.25;;
78368;SDS011;71113;43.092;-89.268;2024-02-15T00:50:46;44.80;;;14.60;;
78368;SDS011;71113;43.092;-89.268;2024-02-15T00:53:14;42.40;;;13.80;;
78368;SDS011;71113;43.092;-89.268;2024-02-15T00:55:41;42.40;;;14.70;;
78368;SDS011;71113;43.092;-89.268;2024-02-15T00:58:07;38.60;;;13.20;;
78368;SDS011;71113;43.092;-89.268;2024-02-15T01:00:33;39.10;;;12.57;;
78368;SDS011;71113;43.092;-89.268;2024-02-15T01:02:59;36.60;;;12.27;;
78368;SDS011;71113;43.092;-89.268;2024-02-15T01:05:25;29.95;;;10.38;;
78368;SDS011;71113;43.092;-89.268;2024-02-15T01:07:51;31.70;;;11.00;;
78368;SDS011;71113;43.092;-89.268;2024-02-15T01:10:17;65.40;;;31.15;;
78368;SDS011;71113;43.092;-89.268;2024-02-15T01:12:43;421.25;;;185.55;;
78368;SDS011;71113;43.092;-89.268;2024-02-15T01:15:09;314.70;;;126.63;;
78368;SDS011;71113;43.092;-89.268;2024-02-15T01:17:35;205.85;;;86.50;;
78368;SDS011;71113;43.092;-89.268;2024-02-15T01:20:01;183.63;;;78.45;;
78368;SDS011;71113;43.092;-89.268;2024-02-15T01:22:27;160.15;;;70.03;;
78368;SDS011;71113;43.092;-89.268;2024-02-15T01:24:53;138.00;;;60.42;;
78368;SDS011;71113;43.092;-89.268;2024-02-15T01:27:22;123.80;;;51.90;;
78368;SDS011;71113;43.092;-89.268;2024-02-15T01:29:48;108.43;;;48.10;;
78368;SDS011;71113;43.092;-89.268;2024-02-15T01:32:14;97.00;;;41.20;;
78368;SDS011;71113;43.092;-89.268;2024-02-15T01:34:40;105.10;;;43.67;;
78368;SDS011;71113;43.092;-89.268;2024-02-15T01:37:06;91.72;;;39.42;;
78368;SDS011;71113;43.092;-89.268;2024-02-15T01:39:32;90.82;;;38.05;;
78368;SDS011;71113;43.092;-89.268;2024-02-15T01:41:58;83.40;;;36.55;;
78368;SDS011;71113;43.092;-89.268;2024-02-15T01:44:24;81.88;;;34.90;;
78368;SDS011;71113;43.092;-89.268;2024-02-15T01:46:50;78.82;;;32.97;;
78368;SDS011;71113;43.092;-89.268;2024-02-15T01:49:20;71.55;;;30.15;;
78368;SDS011;71113;43.092;-89.268;2024-02-15T01:51:48;65.72;;;28.98;;
78368;SDS011;71113;43.092;-89.268;2024-02-15T01:54:17;64.43;;;27.10;;
78368;SDS011;71113;43.092;-89.268;2024-02-15T01:56:45;58.13;;;24.10;;
78368;SDS011;71113;43.092;-89.268;2024-02-15T01:59:12;54.00;;;23.45;;
78368;SDS011;71113;43.092;-89.268;2024-02-15T02:01:41;54.75;;;23.95;;
78368;SDS011;71113;43.092;-89.268;2024-02-15T02:04:08;53.42;;;23.38;;
78368;SDS011;71113;43.092;-89.268;2024-02-15T02:06:35;52.45;;;21.80;;
78368;SDS011;71113;43.092;-89.268;2024-02-15T02:09:03;50.42;;;21.75;;
78368;SDS011;71113;43.092;-89.268;2024-02-15T02:11:29;43.72;;;19.73;;
78368;SDS011;71113;43.092;-89.268;2024-02-15T02:13:55;44.50;;;20.23;;
78368;SDS011;71113;43.092;-89.268;2024-02-15T02:16:30;41.88;;;17.90;;
78368;SDS011;71113;43.092;-89.268;2024-02-15T02:18:57;40.10;;;17.63;;
78368;SDS011;71113;43.092;-89.268;2024-02-15T02:21:27;37.25;;;15.90;;
78368;SDS011;71113;43.092;-89.268;2024-02-15T02:23:57;35.92;;;14.95;;
78368;SDS011;71113;43.092;-89.268;2024-02-15T02:26:24;39.28;;;16.48;;
78368;SDS011;71113;43.092;-89.268;2024-02-15T02:28:51;34.08;;;15.30;;
78368;SDS011;71113;43.092;-89.268;2024-02-15T02:31:20;31.48;;;14.35;;
78368;SDS011;71113;43.092;-89.268;2024-02-15T02:33:50;32.30;;;13.85;;
78368;SDS011;71113;43.092;-89.268;2024-02-15T02:36:20;35.05;;;14.98;;
78368;SDS011;71113;43.092;-89.268;2024-02-15T02:38:46;49.53;;;21.85;;
78368;SDS011;71113;43.092;-89.268;2024-02-15T02:41:15;41.15;;;20.40;;
78368;SDS011;71113;43.092;-89.268;2024-02-15T02:43:44;40.80;;;19.45;;
78368;SDS011;71113;43.092;-89.268;2024-02-15T02:46:10;37.78;;;17.52;;
78368;SDS011;71113;43.092;-89.268;2024-02-15T02:48:37;36.80;;;17.60;;
78368;SDS011;71113;43.092;-89.268;2024-02-15T02:51:04;30.42;;;14.75;;
78368;SDS011;71113;43.092;-89.268;2024-02-15T02:53:31;32.63;;;15.77;;
78368;SDS011;71113;43.092;-89.268;2024-02-15T02:55:57;27.02;;;12.40;;
78368;SDS011;71113;43.092;-89.268;2024-02-15T02:58:23;29.58;;;14.18;;
78368;SDS011;71113;43.092;-89.268;2024-02-15T03:00:49;26.75;;;13.55;;
78368;SDS011;71113;43.092;-89.268;2024-02-15T03:03:17;25.13;;;11.48;;
78368;SDS011;71113;43.092;-89.268;2024-02-15T03:05:48;26.20;;;12.27;;
78368;SDS011;71113;43.092;-89.268;2024-02-15T03:08:14;28.95;;;12.13;;
78368;SDS011;71113;43.092;-89.268;2024-02-15T03:10:42;25.83;;;11.57;;
78368;SDS011;71113;43.092;-89.268;2024-02-15T03:13:09;26.25;;;11.63;;
78368;SDS011;71113;43.092;-89.268;2024-02-15T03:15:35;24.42;;;11.25;;
78368;SDS011;71113;43.092;-89.268;2024-02-15T03:18:02;23.67;;;10.23;;
78368;SDS011;71113;43.092;-89.268;2024-02-15T03:20:38;24.77;;;10.60;;
78368;SDS011;71113;43.092;-89.268;2024-02-15T03:23:04;20.38;;;8.95;;
78368;SDS011;71113;43.092;-89.268;2024-02-15T03:25:30;23.50;;;9.68;;
78368;SDS011;71113;43.092;-89.268;2024-02-15T03:27:57;21.50;;;10.20;;
78368;SDS011;71113;43.092;-89.268;2024-02-15T03:30:29;20.25;;;9.68;;
78368;SDS011;71113;43.092;-89.268;2024-02-15T03:32:57;22.27;;;9.40;;
78368;SDS011;71113;43.092;-89.268;2024-02-15T03:35:24;21.98;;;9.23;;
78368;SDS011;71113;43.092;-89.268;2024-02-15T03:37:53;20.25;;;9.05;;
78368;SDS011;71113;43.092;-89.268;2024-02-15T03:40:20;17.50;;;9.05;;
78368;SDS011;71113;43.092;-89.268;2024-02-15T03:42:47;17.67;;;8.10;;
78368;SDS011;71113;43.092;-89.268;2024-02-15T03:45:15;19.67;;;8.50;;
78368;SDS011;71113;43.092;-89.268;2024-02-15T03:47:41;18.25;;;7.90;;
78368;SDS011;71113;43.092;-89.268;2024-02-15T03:50:08;18.38;;;8.43;;
78368;SDS011;71113;43.092;-89.268;2024-02-15T03:52:38;16.95;;;8.02;;
78368;SDS011;71113;43.092;-89.268;2024-02-15T03:55:04;16.45;;;7.82;;
78368;SDS011;71113;43.092;-89.268;2024-02-15T03:57:32;15.55;;;6.82;;
78368;SDS011;71113;43.092;-89.268;2024-02-15T03:59:59;16.38;;;7.32;;
78368;SDS011;71113;43.092;-89.268;2024-02-15T04:02:25;15.32;;;7.15;;
78368;SDS011;71113;43.092;-89.268;2024-02-15T04:04:53;13.93;;;6.78;;
78368;SDS011;71113;43.092;-89.268;2024-02-15T04:07:20;13.73;;;6.95;;
78368;SDS011;71113;43.092;-89.268;2024-02-15T04:09:47;13.85;;;6.93;;
78368;SDS011;71113;43.092;-89.268;2024-02-15T04:12:14;12.05;;;6.32;;
78368;SDS011;71113;43.092;-89.268;2024-02-15T04:14:40;13.63;;;6.03;;
78368;SDS011;71113;43.092;-89.268;2024-02-15T04:17:06;12.85;;;6.22;;
78368;SDS011;71113;43.092;-89.268;2024-02-15T04:19:33;11.88;;;5.78;;
78368;SDS011;71113;43.092;-89.268;2024-02-15T04:21:59;12.95;;;5.60;;
78368;SDS011;71113;43.092;-89.268;2024-02-15T04:24:33;10.70;;;5.50;;
78368;SDS011;71113;43.092;-89.268;2024-02-15T04:27:00;11.73;;;5.88;;
78368;SDS011;71113;43.092;-89.268;2024-02-15T04:29:26;12.30;;;5.45;;
78368;SDS011;71113;43.092;-89.268;2024-02-15T04:31:52;10.20;;;4.90;;
78368;SDS011;71113;43.092;-89.268;2024-02-15T04:34:19;11.07;;;5.18;;
78368;SDS011;71113;43.092;-89.268;2024-02-15T04:36:46;10.05;;;4.97;;
78368;SDS011;71113;43.092;-89.268;2024-02-15T04:39:19;10.30;;;4.75;;
78368;SDS011;71113;43.092;-89.268;2024-02-15T04:41:55;11.02;;;4.55;;
78368;SDS011;71113;43.092;-89.268;2024-02-15T04:44:23;10.80;;;4.60;;
78368;SDS011;71113;43.092;-89.268;2024-02-15T04:46:53;9.68;;;4.78;;
78368;SDS011;71113;43.092;-89.268;2024-02-15T04:49:21;10.48;;;4.60;;
78368;SDS011;71113;43.092;-89.268;2024-02-15T04:51:48;8.45;;;4.65;;
78368;SDS011;71113;43.092;-89.268;2024-02-15T04:54:14;11.27;;;4.53;;
78368;SDS011;71113;43.092;-89.268;2024-02-15T04:56:41;9.95;;;4.68;;
78368;SDS011;71113;43.092;-89.268;2024-02-15T04:59:07;10.90;;;4.40;;
78368;SDS011;71113;43.092;-89.268;2024-02-15T05:01:37;8.25;;;3.70;;
78368;SDS011;71113;43.092;-89.268;2024-02-15T05:04:03;9.25;;;4.43;;
78368;SDS011;71113;43.092;-89.268;2024-02-15T05:06:32;8.40;;;3.95;;
78368;SDS011;71113;43.092;-89.268;2024-02-15T05:08:59;7.35;;;3.47;;
78368;SDS011;71113;43.092;-89.268;2024-02-15T05:11:36;9.95;;;3.97;;
78368;SDS011;71113;43.092;-89.268;2024-02-15T05:14:03;6.72;;;3.42;;
78368;SDS011;71113;43.092;-89.268;2024-02-15T05:16:32;7.15;;;3.50;;
78368;SDS011;71113;43.092;-89.268;2024-02-15T05:18:58;8.68;;;4.35;;
78368;SDS011;71113;43.092;-89.268;2024-02-15T05:21:24;7.80;;;3.65;;
78368;SDS011;71113;43.092;-89.268;2024-02-15T05:23:51;6.60;;;3.42;;
78368;SDS011;71113;43.092;-89.268;2024-02-15T05:26:18;7.93;;;3.50;;
78368;SDS011;71113;43.092;-89.268;2024-02-15T05:28:51;7.07;;;3.33;;
78368;SDS011;71113;43.092;-89.268;2024-02-15T05:31:18;6.90;;;3.30;;
78368;SDS011;71113;43.092;-89.268;2024-02-15T05:33:48;6.38;;;3.50;;
78368;SDS011;71113;43.092;-89.268;2024-02-15T05:36:16;6.57;;;3.45;;
78368;SDS011;71113;43.092;-89.268;2024-02-15T05:38:53;5.88;;;3.03;;
78368;SDS011;71113;43.092;-89.268;2024-02-15T05:41:20;6.05;;;2.85;;
78368;SDS011;71113;43.092;-89.268;2024-02-15T05:43:46;4.20;;;2.50;;
78368;SDS011;71113;43.092;-89.268;2024-02-15T05:46:18;5.57;;;2.83;;
78368;SDS011;71113;43.092;-89.268;2024-02-15T05:48:48;5.38;;;2.88;;
78368;SDS011;71113;43.092;-89.268;2024-02-15T05:51:14;6.20;;;2.80;;
78368;SDS011;71113;43.092;-89.268;2024-02-15T05:53:40;5.38;;;3.08;;
78368;SDS011;71113;43.092;-89.268;2024-02-15T05:56:08;6.28;;;2.70;;
78368;SDS011;71113;43.092;-89.268;2024-02-15T05:58:37;5.97;;;2.35;;
78368;SDS011;71113;43.092;-89.268;2024-02-15T06:01:05;6.90;;;2.78;;
78368;SDS011;71113;43.092;-89.268;2024-02-15T06:03:37;4.78;;;2.53;;
78368;SDS011;71113;43.092;-89.268;2024-02-15T06:06:04;4.53;;;2.50;;
78368;SDS011;71113;43.092;-89.268;2024-02-15T06:08:33;4.28;;;2.55;;
78368;SDS011;71113;43.092;-89.268;2024-02-15T06:11:00;4.75;;;2.83;;
78368;SDS011;71113;43.092;-89.268;2024-02-15T06:13:27;5.35;;;2.90;;
78368;SDS011;71113;43.092;-89.268;2024-02-15T06:15:53;5.22;;;2.45;;
78368;SDS011;71113;43.092;-89.268;2024-02-15T06:18:23;5.00;;;2.50;;
78368;SDS011;71113;43.092;-89.268;2024-02-15T06:20:54;3.95;;;2.20;;
78368;SDS011;71113;43.092;-89.268;2024-02-15T06:23:27;4.32;;;2.45;;
78368;SDS011;71113;43.092;-89.268;2024-02-15T06:25:54;4.88;;;2.55;;
78368;SDS011;71113;43.092;-89.268;2024-02-15T06:28:26;4.75;;;2.40;;
78368;SDS011;71113;43.092;-89.268;2024-02-15T06:31:10;4.20;;;2.30;;
78368;SDS011;71113;43.092;-89.268;2024-02-15T06:33:55;3.95;;;2.20;;
78368;SDS011;71113;43.092;-89.268;2024-02-15T06:36:41;4.18;;;1.90;;
78368;SDS011;71113;43.092;-89.268;2024-02-15T06:39:32;4.20;;;2.47;;
78368;SDS011;71113;43.092;-89.268;2024-02-15T06:42:11;3.42;;;1.90;;
78368;SDS011;71113;43.092;-89.268;2024-02-15T06:44:45;4.32;;;2.28;;
78368;SDS011;71113;43.092;-89.268;2024-02-15T06:47:12;3.97;;;2.17;;
78368;SDS011;71113;43.092;-89.268;2024-02-15T06:49:39;3.72;;;2.10;;
78368;SDS011;71113;43.092;-89.268;2024-02-15T06:52:06;3.97;;;2.15;;
78368;SDS011;71113;43.092;-89.268;2024-02-15T06:54:33;4.20;;;2.22;;
78368;SDS011;71113;43.092;-89.268;2024-02-15T06:57:01;4.18;;;1.80;;
78368;SDS011;71113;43.092;-89.268;2024-02-15T06:59:28;3.88;;;2.00;;
78368;SDS011;71113;43.092;-89.268;2024-02-15T07:01:53;3.90;;;2.10;;
78368;SDS011;71113;43.092;-89.268;2024-02-15T07:04:20;3.45;;;1.70;;
78368;SDS011;71113;43.092;-89.268;2024-02-15T07:06:46;3.58;;;1.92;;
78368;SDS011;71113;43.092;-89.268;2024-02-15T07:09:14;3.28;;;2.00;;
78368;SDS011;71113;43.092;-89.268;2024-02-15T07:11:41;3.53;;;1.90;;
78368;SDS011;71113;43.092;-89.268;2024-02-15T07:14:07;4.07;;;2.25;;
78368;SDS011;71113;43.092;-89.268;2024-02-15T07:16:34;3.60;;;2.00;;
78368;SDS011;71113;43.092;-89.268;2024-02-15T07:19:00;4.07;;;2.00;;
78368;SDS011;71113;43.092;-89.268;2024-02-15T07:21:28;3.83;;;1.90;;
78368;SDS011;71113;43.092;-89.268;2024-02-15T07:23:54;3.55;;;2.00;;
78368;SDS011;71113;43.092;-89.268;2024-02-15T07:26:21;3.00;;;1.80;;
78368;SDS011;71113;43.092;-89.268;2024-02-15T07:28:51;2.72;;;1.80;;
78368;SDS011;71113;43.092;-89.268;2024-02-15T07:31:18;4.05;;;1.85;;
78368;SDS011;71113;43.092;-89.268;2024-02-15T07:33:48;3.80;;;2.08;;
78368;SDS011;71113;43.092;-89.268;2024-02-15T07:36:19;3.58;;;2.17;;
78368;SDS011;71113;43.092;-89.268;2024-02-15T07:38:49;2.88;;;1.77;;
78368;SDS011;71113;43.092;-89.268;2024-02-15T07:41:19;2.50;;;1.70;;
78368;SDS011;71113;43.092;-89.268;2024-02-15T07:43:50;2.88;;;1.70;;
78368;SDS011;71113;43.092;-89.268;2024-02-15T07:46:19;3.65;;;1.85;;
78368;SDS011;71113;43.092;-89.268;2024-02-15T07:48:45;3.45;;;1.70;;
78368;SDS011;71113;43.092;-89.268;2024-02-15T07:51:18;3.42;;;2.00;;
78368;SDS011;71113;43.092;-89.268;2024-02-15T07:53:46;2.92;;;1.80;;
78368;SDS011;71113;43.092;-89.268;2024-02-15T07:56:13;3.00;;;1.77;;
78368;SDS011;71113;43.092;-89.268;2024-02-15T07:58:41;2.78;;;1.70;;
78368;SDS011;71113;43.092;-89.268;2024-02-15T08:01:15;2.92;;;1.75;;
78368;SDS011;71113;43.092;-89.268;2024-02-15T08:03:42;4.05;;;2.03;;
78368;SDS011;71113;43.092;-89.268;2024-02-15T08:06:14;3.08;;;1.85;;
78368;SDS011;71113;43.092;-89.268;2024-02-15T08:08:44;3.17;;;1.77;;
78368;SDS011;71113;43.092;-89.268;2024-02-15T08:11:12;3.25;;;1.83;;
78368;SDS011;71113;43.092;-89.268;2024-02-15T08:13:45;2.90;;;1.80;;
78368;SDS011;71113;43.092;-89.268;2024-02-15T08:16:13;3.40;;;1.70;;
78368;SDS011;71113;43.092;-89.268;2024-02-15T08:18:41;3.08;;;1.80;;
78368;SDS011;71113;43.092;-89.268;2024-02-15T08:21:12;2.80;;;1.85;;
78368;SDS011;71113;43.092;-89.268;2024-02-15T08:23:38;3.35;;;1.77;;
78368;SDS011;71113;43.092;-89.268;2024-02-15T08:26:04;2.83;;;1.67;;
78368;SDS011;71113;43.092;-89.268;2024-02-15T08:28:30;3.22;;;1.80;;
78368;SDS011;71113;43.092;-89.268;2024-02-15T08:30:56;2.05;;;1.50;;
78368;SDS011;71113;43.092;-89.268;2024-02-15T08:33:23;2.45;;;1.70;;
78368;SDS011;71113;43.092;-89.268;2024-02-15T08:35:49;1.92;;;1.20;;
78368;SDS011;71113;43.092;-89.268;2024-02-15T08:38:16;3.13;;;1.40;;
78368;SDS011;71113;43.092;-89.268;2024-02-15T08:40:46;2.53;;;1.55;;
78368;SDS011;71113;43.092;-89.268;2024-02-15T08:43:12;3.17;;;1.58;;
78368;SDS011;71113;43.092;-89.268;2024-02-15T08:45:40;3.33;;;1.60;;
78368;SDS011;71113;43.092;-89.268;2024-02-15T08:48:07;2.78;;;1.83;;
78368;SDS011;71113;43.092;-89.268;2024-02-15T08:50:33;2.63;;;1.70;;
78368;SDS011;71113;43.092;-89.268;2024-02-15T08:52:59;2.83;;;1.70;;
78368;SDS011;71113;43.092;-89.268;2024-02-15T08:55:25;2.35;;;1.55;;
78368;SDS011;71113;43.092;-89.268;2024-02-15T08:57:52;2.78;;;1.55;;
78368;SDS011;71113;43.092;-89.268;2024-02-15T09:00:19;3.55;;;1.73;;
78368;SDS011;71113;43.092;-89.268;2024-02-15T09:02:46;2.80;;;1.70;;
78368;SDS011;71113;43.092;-89.268;2024-02-15T09:05:14;2.53;;;1.75;;
78368;SDS011;71113;43.092;-89.268;2024-02-15T09:07:41;2.25;;;1.55;;
78368;SDS011;71113;43.092;-89.268;2024-02-15T09:10:08;2.67;;;1.60;;
78368;SDS011;71113;43.092;-89.268;2024-02-15T09:12:37;3.70;;;1.50;;
78368;SDS011;71113;43.092;-89.268;2024-02-15T09:15:06;2.45;;;1.60;;
78368;SDS011;71113;43.092;-89.268;2024-02-15T09:17:33;2.20;;;1.60;;
78368;SDS011;71113;43.092;-89.268;2024-02-15T09:22:40;2.72;;;1.60;;
78368;SDS011;71113;43.092;-89.268;2024-02-15T09:25:06;2.75;;;1.65;;
78368;SDS011;71113;43.092;-89.268;2024-02-15T09:27:33;1.83;;;1.30;;
78368;SDS011;71113;43.092;-89.268;2024-02-15T09:29:59;1.65;;;1.25;;
78368;SDS011;71113;43.092;-89.268;2024-02-15T09:32:25;2.70;;;1.50;;
78368;SDS011;71113;43.092;-89.268;2024-02-15T09:34:51;2.25;;;1.50;;
78368;SDS011;71113;43.092;-89.268;2024-02-15T09:37:16;2.40;;;1.30;;
78368;SDS011;71113;43.092;-89.268;2024-02-15T09:39:42;2.08;;;1.40;;
78368;SDS011;71113;43.092;-89.268;2024-02-15T09:42:08;2.03;;;1.30;;
78368;SDS011;71113;43.092;-89.268;2024-02-15T09:44:35;1.70;;;1.20;;
78368;SDS011;71113;43.092;-89.268;2024-02-15T09:47:04;2.28;;;1.45;;
78368;SDS011;71113;43.092;-89.268;2024-02-15T09:49:37;1.65;;;1.20;;
78368;SDS011;71113;43.092;-89.268;2024-02-15T09:52:07;2.22;;;1.40;;
78368;SDS011;71113;43.092;-89.268;2024-02-15T09:54:43;2.20;;;1.40;;
78368;SDS011;71113;43.092;-89.268;2024-02-15T09:57:09;1.95;;;1.20;;
78368;SDS011;71113;43.092;-89.268;2024-02-15T09:59:36;1.80;;;1.30;;
78368;SDS011;71113;43.092;-89.268;2024-02-15T10:02:02;2.05;;;1.50;;
78368;SDS011;71113;43.092;-89.268;2024-02-15T10:04:29;2.05;;;1.40;;
78368;SDS011;71113;43.092;-89.268;2024-02-15T10:06:55;1.98;;;1.30;;
78368;SDS011;71113;43.092;-89.268;2024-02-15T10:11:57;1.88;;;1.40;;
78368;SDS011;71113;43.092;-89.268;2024-02-15T10:14:24;2.03;;;1.48;;
78368;SDS011;71113;43.092;-89.268;2024-02-15T10:16:53;2.03;;;1.48;;
78368;SDS011;71113;43.092;-89.268;2024-02-15T10:19:20;1.65;;;1.15;;
78368;SDS011;71113;43.092;-89.268;2024-02-15T10:21:53;2.10;;;1.10;;
78368;SDS011;71113;43.092;-89.268;2024-02-15T10:24:23;1.80;;;1.20;;
78368;SDS011;71113;43.092;-89.268;2024-02-15T10:26:59;1.85;;;1.30;;
78368;SDS011;71113;43.092;-89.268;2024-02-15T10:29:31;2.25;;;1.38;;
78368;SDS011;71113;43.092;-89.268;2024-02-15T10:31:57;2.85;;;1.50;;
78368;SDS011;71113;43.092;-89.268;2024-02-15T10:34:27;1.80;;;1.15;;
78368;SDS011;71113;43.092;-89.268;2024-02-15T10:37:12;1.60;;;1.20;;
78368;SDS011;71113;43.092;-89.268;2024-02-15T10:39:41;1.65;;;1.25;;
78368;SDS011;71113;43.092;-89.268;2024-02-15T10:42:08;1.77;;;1.20;;
78368;SDS011;71113;43.092;-89.268;2024-02-15T10:44:37;1.98;;;1.40;;
78368;SDS011;71113;43.092;-89.268;2024-02-15T10:47:07;1.95;;;1.30;;
78368;SDS011;71113;43.092;-89.268;2024-02-15T10:49:34;1.73;;;1.20;;
78368;SDS011;71113;43.092;-89.268;2024-02-15T10:52:04;1.60;;;1.13;;
78368;SDS011;71113;43.092;-89.268;2024-02-15T10:57:10;1.70;;;1.20;;
78368;SDS011;71113;43.092;-89.268;2024-02-15T10:59:55;1.77;;;1.17;;
78368;SDS011;71113;43.092;-89.268;2024-02-15T11:02:58;2.13;;;1.38;;
78368;SDS011;71113;43.092;-89.268;2024-02-15T11:05:29;1.63;;;1.10;;
78368;SDS011;71113;43.092;-89.268;2024-02-15T11:08:00;1.38;;;1.05;;
78368;SDS011;71113;43.092;-89.268;2024-02-15T11:10:29;1.90;;;1.20;;
78368;SDS011;71113;43.092;-89.268;2024-02-15T11:12:57;1.90;;;1.30;;
78368;SDS011;71113;43.092;-89.268;2024-02-15T11:15:45;1.70;;;1.20;;
78368;SDS011;71113;43.092;-89.268;2024-02-15T11:18:12;1.50;;;1.20;;
78368;SDS011;71113;43.092;-89.268;2024-02-15T11:20:45;2.10;;;1.70;;
78368;SDS011;71113;43.092;-89.268;2024-02-15T11:23:13;1.52;;;1.20;;
78368;SDS011;71113;43.092;-89.268;2024-02-15T11:25:50;1.30;;;1.10;;
78368;SDS011;71113;43.092;-89.268;2024-02-15T11:30:52;3.10;;;1.20;;
78368;SDS011;71113;43.092;-89.268;2024-02-15T11:36:10;1.60;;;1.30;;
78368;SDS011;71113;43.092;-89.268;2024-02-15T11:38:37;1.63;;;1.23;;
78368;SDS011;71113;43.092;-89.268;2024-02-15T11:41:08;1.15;;;1.00;;
78368;SDS011;71113;43.092;-89.268;2024-02-15T11:46:15;1.02;;;0.80;;
78368;SDS011;71113;43.092;-89.268;2024-02-15T11:48:45;1.92;;;1.20;;
78368;SDS011;71113;43.092;-89.268;2024-02-15T11:54:11;1.23;;;1.00;;
78368;SDS011;71113;43.092;-89.268;2024-02-15T11:59:13;1.55;;;1.15;;
78368;SDS011;71113;43.092;-89.268;2024-02-15T12:01:57;1.75;;;1.08;;
78368;SDS011;71113;43.092;-89.268;2024-02-15T12:04:42;2.10;;;1.10;;
78368;SDS011;71113;43.092;-89.268;2024-02-15T12:07:27;0.90;;;0.80;;
78368;SDS011;71113;43.092;-89.268;2024-02-15T12:10:18;1.38;;;1.10;;
78368;SDS011;71113;43.092;-89.268;2024-02-15T12:13:02;2.10;;;1.10;;
78368;SDS011;71113;43.092;-89.268;2024-02-15T12:15:56;1.40;;;1.00;;
78368;SDS011;71113;43.092;-89.268;2024-02-15T12:18:42;1.27;;;0.90;;
78368;SDS011;71113;43.092;-89.268;2024-02-15T12:21:09;1.95;;;1.50;;
78368;SDS011;71113;43.092;-89.268;2024-02-15T12:23:40;1.10;;;1.00;;
78368;SDS011;71113;43.092;-89.268;2024-02-15T12:26:06;1.27;;;1.13;;
78368;SDS011;71113;43.092;-89.268;2024-02-15T12:28:35;1.42;;;1.10;;
78368;SDS011;71113;43.092;-89.268;2024-02-15T12:31:02;1.95;;;1.10;;
78368;SDS011;71113;43.092;-89.268;2024-02-15T12:33:28;1.33;;;1.10;;
78368;SDS011;71113;43.092;-89.268;2024-02-15T12:36:04;1.00;;;0.90;;
78368;SDS011;71113;43.092;-89.268;2024-02-15T12:38:30;1.23;;;1.00;;
78368;SDS011;71113;43.092;-89.268;2024-02-15T12:40:56;1.17;;;0.93;;
78368;SDS011;71113;43.092;-89.268;2024-02-15T12:43:22;1.33;;;1.00;;
78368;SDS011;71113;43.092;-89.268;2024-02-15T12:45:48;1.10;;;1.00;;
78368;SDS011;71113;43.092;-89.268;2024-02-15T12:48:14;0.98;;;0.80;;
78368;SDS011;71113;43.092;-89.268;2024-02-15T12:50:44;1.48;;;0.93;;
78368;SDS011;71113;43.092;-89.268;2024-02-15T12:53:10;1.20;;;1.10;;
78368;SDS011;71113;43.092;-89.268;2024-02-15T12:55:36;1.10;;;1.00;;
78368;SDS011;71113;43.092;-89.268;2024-02-15T12:58:06;1.58;;;0.90;;
78368;SDS011;71113;43.092;-89.268;2024-02-15T13:03:06;1.40;;;1.20;;
78368;SDS011;71113;43.092;-89.268;2024-02-15T13:05:37;1.17;;;0.98;;
78368;SDS011;71113;43.092;-89.268;2024-02-15T13:08:04;1.35;;;1.00;;
78368;SDS011;71113;43.092;-89.268;2024-02-15T13:10:35;1.50;;;1.20;;
78368;SDS011;71113;43.092;-89.268;2024-02-15T13:13:00;1.27;;;0.88;;
78368;SDS011;71113;43.092;-89.268;2024-02-15T13:15:26;1.33;;;1.10;;
78368;SDS011;71113;43.092;-89.268;2024-02-15T13:17:56;1.55;;;1.25;;
78368;SDS011;71113;43.092;-89.268;2024-02-15T13:20:25;1.77;;;0.90;;
78368;SDS011;71113;43.092;-89.268;2024-02-15T13:23:10;1.13;;;0.90;;
78368;SDS011;71113;43.092;-89.268;2024-02-15T13:25:50;1.00;;;0.55;;
78368;SDS011;71113;43.092;-89.268;2024-02-15T13:28:22;1.10;;;0.98;;
78368;SDS011;71113;43.092;-89.268;2024-02-15T13:30:48;1.02;;;0.82;;
78368;SDS011;71113;43.092;-89.268;2024-02-15T13:33:14;1.13;;;1.00;;
78368;SDS011;71113;43.092;-89.268;2024-02-15T13:35:41;1.38;;;1.10;;
78368;SDS011;71113;43.092;-89.268;2024-02-15T13:38:07;1.98;;;1.10;;
78368;SDS011;71113;43.092;-89.268;2024-02-15T13:40:39;2.75;;;0.68;;
78368;SDS011;71113;43.092;-89.268;2024-02-15T13:43:07;0.95;;;0.82;;
78368;SDS011;71113;43.092;-89.268;2024-02-15T13:45:40;1.75;;;0.90;;
78368;SDS011;71113;43.092;-89.268;2024-02-15T13:48:06;1.02;;;0.93;;
78368;SDS011;71113;43.092;-89.268;2024-02-15T13:50:34;1.25;;;0.95;;
78368;SDS011;71113;43.092;-89.268;2024-02-15T13:53:00;0.68;;;0.68;;
78368;SDS011;71113;43.092;-89.268;2024-02-15T13:55:29;0.75;;;0.75;;
78368;SDS011;71113;43.092;-89.268;2024-02-15T13:57:56;1.77;;;0.82;;
78368;SDS011;71113;43.092;-89.268;2024-02-15T14:00:22;2.03;;;0.90;;
78368;SDS011;71113;43.092;-89.268;2024-02-15T14:02:58;0.90;;;0.90;;
78368;SDS011;71113;43.092;-89.268;2024-02-15T14:05:26;1.27;;;0.90;;
78368;SDS011;71113;43.092;-89.268;2024-02-15T14:08:00;575.58;;;322.50;;
78368;SDS011;71113;43.092;-89.268;2024-02-15T14:10:31;370.48;;;163.90;;
78368;SDS011;71113;43.092;-89.268;2024-02-15T14:13:00;213.43;;;96.53;;
78368;SDS011;71113;43.092;-89.268;2024-02-15T14:15:31;132.45;;;62.13;;
78368;SDS011;71113;43.092;-89.268;2024-02-15T14:18:07;122.63;;;56.72;;
78368;SDS011;71113;43.092;-89.268;2024-02-15T14:20:39;104.63;;;49.28;;
78368;SDS011;71113;43.092;-89.268;2024-02-15T14:23:07;104.90;;;46.50;;
78368;SDS011;71113;43.092;-89.268;2024-02-15T14:25:38;97.40;;;45.90;;
78368;SDS011;71113;43.092;-89.268;2024-02-15T14:28:05;183.65;;;77.50;;
78368;SDS011;71113;43.092;-89.268;2024-02-15T14:30:34;186.82;;;71.80;;
78368;SDS011;71113;43.092;-89.268;2024-02-15T14:33:19;184.80;;;68.50;;
78368;SDS011;71113;43.092;-89.268;2024-02-15T14:35:47;187.18;;;67.88;;
78368;SDS011;71113;43.092;-89.268;2024-02-15T14:38:14;183.40;;;67.13;;
78368;SDS011;71113;43.092;-89.268;2024-02-15T14:40:43;176.50;;;64.30;;
78368;SDS011;71113;43.092;-89.268;2024-02-15T14:43:21;183.80;;;66.63;;
78368;SDS011;71113;43.092;-89.268;2024-02-15T14:45:53;164.45;;;59.20;;